Aérodrome :
LOGIN :

S'inscrire | Disclaimer

   EN    FR    IT 

 










Légende :    VFR   VFR Marginal   IFR   IFR Intensif   IFR Très Intensif
Visi : 
Plafond : 
>= 8 km
>= 3000ft
5 à 8 km
1000 à 3000 ft
1500m à 5 km
500 à 1000 ft
800 à 1500m
200 à 500 ft
< 800m
< 200 ft
Symboles :   Orages  Brouillard  Fortes neiges  Fortes précipitations  Vent > 20 kt
SIGMETs :   Divers  Orages  Givrage  Turbulence  Onde Orograph.  Cendres Volcan.






- Altitude de l'aérodrome : 791 ft
- Code IATA : KRK


EPKK - Krakow-Balice

DERNIER METAR :
  • 020030Z 06004KT 2600 BR SCT004 M05/M06 Q1023

METARs EXPIRÉS :
  • 020000Z VRB01KT 2600 BR SCT004 M05/M06 Q1023
  • 012330Z 05004KT 2000 BR NSC M06/M07 Q1023
  • 012300Z 06003KT 3500 BR NSC M05/M06 Q1023
  • 012230Z 04003KT 3500 BR NSC M05/M06 Q1023
  • 012200Z 04005KT 4000 BR NSC M06/M07 Q1023

TAF TAF EPKK
Valide du 02 à 00h jusqu'au 03 à 00h UTC


012330Z 0200/0224 06003KT 3000 BR NSC
BECMG 0200/0203 1200 BR
PROB40 0201/0207 0400 FZFG BKN003
BECMG 0207/0210 CAVOK
BECMG 0218/0221 3000 BR
PROB40 0221/0224 0600 FZFG BKN003



MET'MAP, la Météo Aéronautique d'un coup d'oeil ! - Copyright ORBIFLY Décembre 2007 - Disclaimer

ORBIFLY MET'MAP TEAM :

Programmation & Développement : Alexandra Zaïnal
Sur une idée originale de : Baudouin d'Aumeries
Assistance à la programmation : Marc-Olivier Méhu
Soutien technique & logistique : Manuel Goepfert

Contact : metmap@orbifly.com




SOURCES & CREDITS :

   NOAA